createdAt,value
2022-11-12T00:01:24.222Z,93.43
2022-11-12T00:04:29.018Z,93.08
2022-11-12T00:07:33.891Z,93.60
2022-11-12T00:10:39.933Z,93.98
2022-11-12T00:13:45.221Z,93.31
2022-11-12T00:16:50.024Z,93.57
2022-11-12T00:19:55.537Z,93.70
2022-11-12T00:23:00.197Z,93.35
2022-11-12T00:26:06.324Z,94.13
2022-11-12T00:29:11.029Z,94.24
2022-11-12T00:32:16.651Z,94.56
2022-11-12T00:35:21.586Z,94.89
2022-11-12T00:38:26.321Z,94.44
2022-11-12T00:41:32.603Z,94.11
2022-11-12T00:44:37.288Z,93.85
2022-11-12T00:47:42.086Z,93.99
2022-11-12T00:50:49.790Z,93.72
2022-11-12T00:53:54.517Z,93.96
2022-11-12T00:57:00.896Z,93.53
2022-11-12T01:00:07.454Z,94.64
2022-11-12T01:03:12.274Z,94.48
2022-11-12T01:06:18.997Z,94.29
2022-11-12T01:09:24.806Z,93.65
2022-11-12T01:12:33.008Z,93.20
2022-11-12T01:15:44.605Z,92.80
2022-11-12T01:18:52.987Z,93.60
2022-11-12T01:21:58.305Z,92.80
2022-11-12T01:25:03.239Z,92.43
2022-11-12T01:31:29.490Z,91.46
2022-11-12T01:34:34.400Z,90.66
2022-11-12T01:37:38.854Z,89.88
2022-11-12T01:40:43.552Z,90.47
2022-11-12T01:43:50.286Z,90.60
2022-11-12T01:47:08.914Z,90.26
2022-11-12T01:50:19.165Z,90.17
2022-11-12T01:53:27.998Z,90.23
2022-11-12T01:56:34.983Z,90.81
2022-11-12T01:59:45.762Z,91.52
2022-11-12T02:02:56.257Z,90.90
2022-11-12T02:06:05.196Z,92.48
2022-11-12T02:09:11.824Z,92.43
2022-11-12T02:12:37.622Z,91.43
2022-11-12T02:15:42.996Z,91.02
2022-11-12T02:18:49.158Z,91.55
2022-11-12T02:21:55.387Z,91.84
2022-11-12T02:25:00.404Z,91.03
2022-11-12T02:28:09.833Z,91.57
2022-11-12T02:31:14.604Z,92.22
2022-11-12T02:34:19.110Z,92.91
2022-11-12T02:37:26.147Z,93.13
2022-11-12T02:40:31.902Z,93.37
2022-11-12T02:43:36.996Z,93.66
2022-11-12T02:46:44.757Z,93.23
2022-11-12T02:49:49.597Z,93.54
2022-11-12T02:52:55.567Z,93.48
2022-11-12T02:56:00.790Z,93.84
2022-11-12T02:59:05.385Z,94.37
2022-11-12T03:02:10.261Z,94.74
2022-11-12T03:05:15.996Z,94.83
2022-11-12T03:08:22.351Z,95.33
2022-11-12T03:11:27.681Z,96.16
2022-11-12T03:14:32.268Z,97.90
2022-11-12T03:17:37.067Z,98.13
2022-11-12T03:20:41.469Z,97.57
2022-11-12T03:23:47.505Z,98.34
2022-11-12T03:26:52.186Z,98.50
2022-11-12T03:29:56.717Z,97.81
2022-11-12T03:33:01.415Z,98.56
2022-11-12T03:36:07.317Z,97.93
2022-11-12T03:39:15.108Z,97.65
2022-11-12T03:42:19.677Z,96.98
2022-11-12T03:45:25.965Z,97.30
2022-11-12T03:48:30.725Z,97.11
2022-11-12T03:51:35.073Z,96.79
2022-11-12T03:54:41.987Z,95.21
2022-11-12T03:57:47.465Z,93.72
2022-11-12T04:00:53.428Z,93.06
2022-11-12T04:03:58.261Z,92.93
2022-11-12T04:07:19.085Z,91.75
2022-11-12T04:10:25.398Z,91.86
2022-11-12T04:13:30.630Z,91.52
2022-11-12T04:16:51.921Z,92.45
2022-11-12T04:20:13.488Z,92.22
2022-11-12T04:23:17.941Z,92.77
2022-11-12T04:26:25.218Z,92.51
2022-11-12T04:29:46.412Z,93.26
2022-11-12T04:32:53.175Z,94.03
2022-11-12T04:35:58.219Z,93.56
2022-11-12T04:39:02.937Z,94.47
2022-11-12T04:42:27.793Z,94.06
2022-11-12T04:45:32.320Z,94.74
2022-11-12T04:48:36.997Z,95.52
2022-11-12T04:52:06.711Z,95.38
2022-11-12T04:55:11.788Z,95.75
2022-11-12T04:58:17.673Z,95.69
2022-11-12T05:01:22.373Z,95.49
2022-11-12T05:04:27.896Z,95.75
2022-11-12T05:07:34.657Z,95.17
2022-11-12T05:10:39.376Z,94.68
2022-11-12T05:13:45.457Z,95.05
2022-11-12T05:16:50.617Z,95.95
2022-11-12T05:19:55.602Z,96.07
2022-11-12T05:23:07.987Z,96.51
2022-11-12T05:26:12.967Z,95.53
2022-11-12T05:29:19.382Z,96.23
2022-11-12T05:32:24.612Z,96.63
2022-11-12T05:35:29.549Z,97.34
2022-11-12T05:38:34.657Z,97.53
2022-11-12T05:42:05.856Z,97.22
2022-11-12T05:45:06.682Z,96.38
2022-11-12T05:48:11.274Z,96.78
2022-11-12T05:51:16.109Z,95.94
2022-11-12T05:54:22.797Z,95.12
2022-11-12T05:57:29.847Z,93.83
2022-11-12T06:00:39.473Z,94.20
2022-11-12T06:03:44.015Z,92.74
2022-11-12T06:06:49.091Z,92.19
2022-11-12T06:09:53.750Z,92.84
2022-11-12T06:12:59.261Z,93.76
2022-11-12T06:16:05.071Z,93.26
2022-11-12T06:19:09.675Z,94.26
2022-11-12T06:22:14.502Z,96.38
2022-11-12T06:25:19.480Z,96.82
2022-11-12T06:28:24.773Z,96.56
2022-11-12T06:31:31.336Z,95.47
2022-11-12T06:34:35.678Z,95.91
2022-11-12T06:37:41.217Z,94.91
2022-11-12T06:40:46.561Z,93.55
2022-11-12T06:43:50.824Z,92.85
2022-11-12T06:46:56.960Z,93.18
2022-11-12T06:50:02.702Z,93.07
2022-11-12T06:53:07.742Z,93.04
2022-11-12T06:56:12.065Z,94.19
2022-11-12T06:59:17.022Z,94.53
2022-11-12T07:02:23.476Z,95.48
2022-11-12T07:05:28.099Z,95.67
2022-11-12T07:08:33.726Z,96.30
2022-11-12T07:11:38.580Z,96.29
2022-11-12T07:14:43.865Z,96.16
2022-11-12T07:17:49.858Z,95.20
2022-11-12T07:20:59.254Z,94.86
2022-11-12T07:24:03.761Z,94.53
2022-11-12T07:27:08.494Z,94.55
2022-11-12T07:30:13.629Z,94.82
2022-11-12T07:33:19.768Z,94.45
2022-11-12T07:36:24.674Z,94.46
2022-11-12T07:39:29.870Z,93.79
2022-11-12T07:42:36.231Z,95.30
2022-11-12T07:45:41.168Z,94.24
2022-11-12T07:48:47.695Z,94.90
2022-11-12T07:51:52.933Z,94.99
2022-11-12T07:54:58.367Z,94.57
2022-11-12T07:58:03.177Z,94.75
2022-11-12T08:01:12.477Z,94.65
2022-11-12T08:04:18.521Z,94.54
2022-11-12T08:07:23.209Z,94.65
2022-11-12T08:10:27.995Z,93.96
2022-11-12T08:13:33.539Z,95.05
2022-11-12T08:16:38.361Z,95.05
2022-11-12T08:19:44.431Z,94.69
2022-11-12T08:22:49.633Z,94.10
2022-11-12T08:25:54.443Z,94.50
2022-11-12T08:29:01.680Z,95.24
2022-11-12T08:32:10.189Z,95.54
2022-11-12T08:35:16.526Z,95.76
2022-11-12T08:38:21.070Z,94.72
2022-11-12T08:41:26.090Z,93.84
2022-11-12T08:44:31.022Z,94.10
2022-11-12T08:47:35.634Z,94.36
2022-11-12T08:50:42.651Z,94.21
2022-11-12T08:53:47.659Z,94.03
2022-11-12T08:56:52.800Z,92.78
2022-11-12T08:59:57.677Z,92.46
2022-11-12T09:03:02.910Z,92.42
2022-11-12T09:06:09.322Z,92.74
2022-11-12T09:09:14.361Z,91.83
2022-11-12T09:12:19.903Z,91.79
2022-11-12T09:15:37.323Z,92.03
2022-11-12T09:18:40.440Z,91.68
2022-11-12T09:21:44.472Z,90.22
2022-11-12T09:24:47.169Z,89.94
2022-11-12T09:27:49.853Z,89.43
2022-11-12T09:30:53.971Z,89.18
2022-11-12T09:33:56.669Z,85.99
2022-11-12T09:37:00.784Z,81.08
2022-11-12T09:40:03.430Z,78.33
2022-11-12T09:43:16.704Z,78.89
2022-11-12T09:46:30.568Z,77.55
2022-11-12T09:49:37.889Z,78.91
2022-11-12T09:52:45.111Z,79.22
2022-11-12T09:55:51.024Z,81.07
2022-11-12T09:58:54.648Z,79.53
2022-11-12T10:02:11.505Z,79.33
2022-11-12T10:05:23.639Z,78.56
2022-11-12T10:08:39.349Z,79.08
2022-11-12T10:12:18.032Z,79.87
2022-11-12T10:15:57.700Z,80.15
2022-11-12T10:19:16.871Z,81.07
2022-11-12T10:22:35.747Z,80.92
2022-11-12T10:25:42.643Z,79.86
2022-11-12T10:28:48.691Z,79.28
2022-11-12T10:31:51.361Z,79.06
2022-11-12T10:34:54.102Z,78.33
2022-11-12T10:38:00.633Z,79.62
2022-11-12T10:41:20.271Z,79.13
2022-11-12T10:44:27.423Z,79.79
2022-11-12T10:47:33.421Z,76.46
2022-11-12T10:50:40.979Z,75.31
2022-11-12T10:53:43.666Z,77.03
2022-11-12T10:56:55.117Z,75.73
2022-11-12T11:00:09.372Z,75.69
2022-11-12T11:03:20.564Z,75.61
2022-11-12T11:06:26.890Z,75.61
2022-11-12T11:09:29.590Z,76.40
2022-11-12T11:12:35.190Z,76.44
2022-11-12T11:15:39.162Z,75.61
2022-11-12T11:18:43.768Z,75.45
2022-11-12T11:22:09.175Z,74.66
2022-11-12T11:25:19.707Z,75.23
2022-11-12T11:28:34.368Z,74.12
2022-11-12T11:31:46.624Z,73.26
2022-11-12T11:34:58.369Z,73.75
2022-11-12T11:38:15.651Z,74.09
2022-11-12T11:41:42.938Z,73.82
2022-11-12T11:44:57.125Z,73.02
2022-11-12T11:48:12.254Z,72.91
2022-11-12T11:51:39.337Z,71.34
2022-11-12T11:55:01.088Z,70.97
2022-11-12T11:58:13.660Z,69.98
2022-11-12T12:01:22.855Z,68.13
2022-11-12T12:04:46.019Z,67.69
2022-11-12T12:07:55.975Z,69.42
2022-11-12T12:11:09.275Z,69.20
2022-11-12T12:14:24.411Z,68.63
2022-11-12T12:17:48.844Z,69.70
2022-11-12T12:20:59.733Z,70.66
2022-11-12T12:24:05.387Z,71.10
2022-11-12T12:27:12.586Z,68.31
2022-11-12T12:30:20.816Z,66.22
2022-11-12T12:33:33.344Z,63.95
2022-11-12T12:36:40.576Z,62.45
2022-11-12T12:39:49.787Z,60.38
2022-11-12T12:42:57.522Z,58.46
2022-11-12T12:46:00.457Z,55.45
2022-11-12T12:49:07.621Z,53.52
2022-11-12T12:52:13.784Z,51.97
2022-11-12T12:55:40.001Z,51.83
2022-11-12T12:58:45.853Z,53.02
2022-11-12T13:01:57.780Z,53.94
2022-11-12T13:05:01.837Z,57.17
2022-11-12T13:08:08.756Z,58.60
2022-11-12T13:11:38.618Z,60.80
2022-11-12T13:15:13.371Z,61.29
2022-11-12T13:19:02.120Z,63.16
2022-11-12T13:22:52.062Z,63.40
2022-11-12T13:26:33.628Z,64.71
2022-11-12T13:29:46.351Z,65.48
2022-11-12T13:32:56.597Z,65.91
2022-11-12T13:36:26.023Z,66.41
2022-11-12T13:39:34.905Z,67.60
2022-11-12T13:42:50.966Z,68.39
2022-11-12T13:45:56.920Z,69.15
2022-11-12T13:49:03.060Z,69.87
2022-11-12T13:52:07.176Z,70.82
2022-11-12T13:55:16.653Z,71.28
2022-11-12T13:58:29.376Z,72.17
2022-11-12T14:01:33.512Z,73.08
2022-11-12T14:04:36.562Z,73.42
2022-11-12T14:07:51.104Z,73.95
2022-11-12T14:11:14.226Z,74.38
2022-11-12T14:14:26.819Z,75.18
2022-11-12T14:17:39.815Z,76.66
2022-11-12T14:20:43.066Z,77.85
2022-11-12T14:23:48.800Z,78.74
2022-11-12T14:26:53.170Z,79.74
2022-11-12T14:30:11.940Z,79.80
2022-11-12T14:33:21.051Z,78.83
2022-11-12T14:36:24.701Z,79.34
2022-11-12T14:39:30.310Z,80.19
2022-11-12T14:42:36.219Z,80.91
2022-11-12T14:45:39.008Z,81.41
2022-11-12T14:48:50.612Z,82.11
2022-11-12T14:51:57.784Z,83.08
2022-11-12T14:55:11.332Z,84.04
2022-11-12T14:58:16.736Z,85.43
2022-11-12T15:02:08.808Z,86.01
2022-11-12T15:04:46.283Z,86.43
2022-11-12T15:07:55.211Z,87.22
2022-11-12T15:10:58.835Z,87.26
2022-11-12T15:14:04.481Z,87.36
2022-11-12T15:17:07.447Z,88.03
2022-11-12T15:20:15.901Z,88.36
2022-11-12T15:23:19.710Z,88.33
2022-11-12T15:26:32.110Z,88.45
2022-11-12T15:29:37.135Z,89.35
2022-11-12T15:32:39.767Z,89.34
2022-11-12T15:35:44.046Z,89.29
2022-11-12T15:38:49.951Z,90.28
2022-11-12T15:41:59.167Z,91.02
2022-11-12T15:45:05.937Z,91.13
2022-11-12T15:48:10.864Z,91.98
2022-11-12T15:51:18.369Z,91.16
2022-11-12T15:54:21.017Z,90.59
2022-11-12T15:57:26.601Z,90.76
2022-11-12T16:00:35.762Z,91.05
2022-11-12T16:03:38.445Z,90.82
2022-11-12T16:06:41.126Z,90.66
2022-11-12T16:09:44.133Z,91.10
2022-11-12T16:12:48.074Z,91.16
2022-11-12T16:15:52.984Z,92.06
2022-11-12T16:18:55.620Z,91.87
2022-11-12T16:21:58.277Z,92.39
2022-11-12T16:25:00.945Z,92.55
2022-11-12T16:28:05.004Z,93.25
2022-11-12T16:31:09.321Z,92.73
2022-11-12T16:34:12.620Z,92.06
2022-11-12T16:37:16.025Z,90.99
2022-11-12T16:40:20.884Z,90.94
2022-11-12T16:43:23.505Z,90.90
2022-11-12T16:46:39.259Z,90.46
2022-11-12T16:49:42.757Z,90.46
2022-11-12T16:52:45.668Z,91.19
2022-11-12T16:55:48.349Z,91.59
2022-11-12T16:58:52.041Z,91.39
2022-11-12T17:01:56.085Z,91.11
2022-11-12T17:04:58.848Z,91.49
2022-11-12T17:08:01.519Z,91.67
2022-11-12T17:11:09.666Z,91.34
2022-11-12T17:14:12.388Z,91.19
2022-11-12T17:17:16.422Z,91.74
2022-11-12T17:20:19.518Z,91.25
2022-11-12T17:23:22.188Z,91.19
2022-11-12T17:26:24.942Z,90.47
2022-11-12T17:29:28.361Z,91.05
2022-11-12T17:32:32.397Z,91.26
2022-11-12T17:35:35.739Z,91.48
2022-11-12T17:38:38.637Z,91.76
2022-11-12T17:41:41.421Z,92.13
2022-11-12T17:44:45.615Z,91.71
2022-11-12T17:47:49.645Z,91.84
2022-11-12T17:50:53.419Z,92.01
2022-11-12T17:53:56.426Z,92.46
2022-11-12T17:56:59.194Z,92.87
2022-11-12T18:00:01.926Z,92.49
2022-11-12T18:03:06.222Z,92.91
2022-11-12T18:06:13.153Z,92.53
2022-11-12T18:09:16.734Z,92.09
2022-11-12T18:12:19.473Z,92.45
2022-11-12T18:15:25.178Z,92.61
2022-11-12T18:18:29.849Z,92.81
2022-11-12T18:21:32.639Z,92.49
2022-11-12T18:24:35.474Z,92.09
2022-11-12T18:27:38.575Z,92.18
2022-11-12T18:30:41.281Z,92.30
2022-11-12T18:33:45.365Z,92.79
2022-11-12T18:36:48.042Z,92.35
2022-11-12T18:39:50.844Z,91.25
2022-11-12T18:42:54.321Z,91.35
2022-11-12T18:45:58.368Z,90.93
2022-11-12T18:49:02.746Z,90.79
2022-11-12T18:52:05.757Z,90.30
2022-11-12T18:55:09.596Z,90.75
2022-11-12T18:58:12.314Z,91.05
2022-11-12T19:01:16.687Z,90.95
2022-11-12T19:04:20.772Z,91.56
2022-11-12T19:07:23.605Z,91.72
2022-11-12T19:10:26.342Z,91.79
2022-11-12T19:13:29.855Z,91.03
2022-11-12T19:16:32.970Z,91.34
2022-11-12T19:19:37.069Z,91.39
2022-11-12T19:22:39.712Z,90.69
2022-11-12T19:25:42.450Z,91.40
2022-11-12T19:28:46.370Z,91.24
2022-11-12T19:31:49.014Z,90.94
2022-11-12T19:34:53.019Z,91.86
2022-11-12T19:37:55.660Z,92.28
2022-11-12T19:41:04.107Z,91.77
2022-11-12T19:44:07.172Z,91.24
2022-11-12T19:47:09.821Z,91.29
2022-11-12T19:50:14.086Z,91.67
2022-11-12T19:53:16.992Z,91.57
2022-11-12T19:56:21.516Z,91.12
2022-11-12T19:59:24.209Z,91.55
2022-11-12T20:02:27.106Z,90.83
2022-11-12T20:05:31.832Z,91.22
2022-11-12T20:08:34.720Z,91.52
2022-11-12T20:11:37.692Z,91.13
2022-11-12T20:14:40.398Z,91.27
2022-11-12T20:17:43.082Z,90.99
2022-11-12T20:20:53.504Z,90.64
2022-11-12T20:23:56.157Z,90.21
2022-11-12T20:26:58.837Z,90.77
2022-11-12T20:30:01.481Z,90.70
2022-11-12T20:33:04.238Z,90.41
2022-11-12T20:36:10.264Z,90.19
2022-11-12T20:39:12.931Z,90.34
2022-11-12T20:42:15.583Z,90.68
2022-11-12T20:45:18.441Z,90.18
2022-11-12T20:48:21.353Z,90.44
2022-11-12T20:51:28.568Z,90.53
2022-11-12T20:54:31.239Z,90.10
2022-11-12T20:57:33.840Z,90.50
2022-11-12T21:00:36.671Z,90.58
2022-11-12T21:03:40.681Z,90.49
2022-11-12T21:06:45.109Z,90.63
2022-11-12T21:09:47.895Z,90.01
2022-11-12T21:12:50.547Z,90.21
2022-11-12T21:15:56.750Z,90.59
2022-11-12T21:19:04.175Z,90.84
2022-11-12T21:22:14.657Z,90.37
2022-11-12T21:25:21.412Z,90.06
2022-11-12T21:28:27.563Z,90.44
2022-11-12T21:31:33.945Z,90.36
2022-11-12T21:34:41.984Z,90.00
2022-11-12T21:37:50.913Z,90.08
2022-11-12T21:41:05.076Z,90.77
2022-11-12T21:44:13.785Z,90.54
2022-11-12T21:47:19.926Z,91.41
2022-11-12T21:50:25.700Z,90.69
2022-11-12T21:53:34.301Z,90.81
2022-11-12T21:56:41.161Z,89.69
2022-11-12T21:59:49.811Z,90.52
2022-11-12T22:02:58.944Z,89.94
2022-11-12T22:06:06.463Z,89.54
2022-11-12T22:09:15.831Z,89.83
2022-11-12T22:12:24.599Z,89.90
2022-11-12T22:15:37.302Z,90.34
2022-11-12T22:18:47.969Z,90.71
2022-11-12T22:21:55.483Z,90.72
2022-11-12T22:25:09.840Z,90.27
2022-11-12T22:28:17.763Z,91.12
2022-11-12T22:31:28.111Z,90.13
2022-11-12T22:34:35.501Z,90.36
2022-11-12T22:37:42.696Z,89.48
2022-11-12T22:40:54.486Z,89.13
2022-11-12T22:44:06.111Z,90.33
2022-11-12T22:47:13.242Z,89.56
2022-11-12T22:50:19.125Z,90.17
2022-11-12T22:53:38.887Z,89.85
2022-11-12T22:56:52.305Z,90.13
2022-11-12T23:00:02.060Z,90.08
2022-11-12T23:03:11.436Z,89.92
2022-11-12T23:06:21.294Z,90.08
2022-11-12T23:09:31.858Z,90.53
2022-11-12T23:12:39.757Z,89.81
2022-11-12T23:15:50.076Z,90.48
2022-11-12T23:18:57.764Z,91.29
2022-11-12T23:22:07.923Z,92.05
2022-11-12T23:25:22.248Z,91.85
2022-11-12T23:28:43.151Z,92.96
2022-11-12T23:31:56.583Z,92.50
2022-11-12T23:35:04.454Z,92.75
2022-11-12T23:38:25.201Z,93.28
2022-11-12T23:41:37.601Z,93.12
2022-11-12T23:44:50.324Z,92.56
2022-11-12T23:48:00.170Z,93.59
2022-11-12T23:51:09.078Z,93.02
2022-11-12T23:54:22.799Z,93.81
2022-11-12T23:57:26.242Z,94.15
